sensor_id;sensor_type;location;lat;lon;timestamp;P1;durP1;ratioP1;P2;durP2;ratioP2
76608;SDS011;65928;53.936;27.540;2022-12-29T00:00:48;13.52;;;7.90;;
76608;SDS011;65928;53.936;27.540;2022-12-29T00:03:14;13.85;;;8.88;;
76608;SDS011;65928;53.936;27.540;2022-12-29T00:05:39;11.05;;;7.93;;
76608;SDS011;65928;53.936;27.540;2022-12-29T00:08:05;12.85;;;8.63;;
76608;SDS011;65928;53.936;27.540;2022-12-29T00:10:30;9.77;;;7.25;;
76608;SDS011;65928;53.936;27.540;2022-12-29T00:12:56;13.90;;;8.20;;
76608;SDS011;65928;53.936;27.540;2022-12-29T00:19:02;11.13;;;7.28;;
76608;SDS011;65928;53.936;27.540;2022-12-29T00:21:28;11.25;;;8.45;;
76608;SDS011;65928;53.936;27.540;2022-12-29T00:24:20;10.38;;;6.82;;
76608;SDS011;65928;53.936;27.540;2022-12-29T00:26:47;9.82;;;7.47;;
76608;SDS011;65928;53.936;27.540;2022-12-29T00:29:39;10.00;;;6.80;;
76608;SDS011;65928;53.936;27.540;2022-12-29T00:32:23;12.90;;;8.27;;
76608;SDS011;65928;53.936;27.540;2022-12-29T00:38:29;10.65;;;6.90;;
76608;SDS011;65928;53.936;27.540;2022-12-29T00:41:16;11.10;;;8.48;;
76608;SDS011;65928;53.936;27.540;2022-12-29T00:50:43;13.80;;;8.13;;
76608;SDS011;65928;53.936;27.540;2022-12-29T00:53:08;11.57;;;7.30;;
76608;SDS011;65928;53.936;27.540;2022-12-29T00:55:37;11.35;;;7.75;;
76608;SDS011;65928;53.936;27.540;2022-12-29T00:58:03;13.00;;;8.15;;
76608;SDS011;65928;53.936;27.540;2022-12-29T01:00:28;9.90;;;6.43;;
76608;SDS011;65928;53.936;27.540;2022-12-29T01:02:54;14.73;;;8.38;;
76608;SDS011;65928;53.936;27.540;2022-12-29T01:05:19;12.40;;;8.02;;
76608;SDS011;65928;53.936;27.540;2022-12-29T01:07:45;12.25;;;7.07;;
76608;SDS011;65928;53.936;27.540;2022-12-29T01:10:10;11.20;;;8.23;;
76608;SDS011;65928;53.936;27.540;2022-12-29T01:12:36;12.18;;;8.45;;
76608;SDS011;65928;53.936;27.540;2022-12-29T01:15:10;12.57;;;8.30;;
76608;SDS011;65928;53.936;27.540;2022-12-29T01:17:37;10.73;;;7.35;;
76608;SDS011;65928;53.936;27.540;2022-12-29T01:20:03;10.00;;;7.45;;
76608;SDS011;65928;53.936;27.540;2022-12-29T01:22:28;12.65;;;9.00;;
76608;SDS011;65928;53.936;27.540;2022-12-29T01:24:54;12.48;;;8.70;;
76608;SDS011;65928;53.936;27.540;2022-12-29T01:27:19;10.50;;;6.90;;
76608;SDS011;65928;53.936;27.540;2022-12-29T01:29:45;9.85;;;6.97;;
76608;SDS011;65928;53.936;27.540;2022-12-29T01:32:10;13.15;;;9.02;;
76608;SDS011;65928;53.936;27.540;2022-12-29T01:37:57;9.88;;;7.55;;
76608;SDS011;65928;53.936;27.540;2022-12-29T01:40:23;11.43;;;7.97;;
76608;SDS011;65928;53.936;27.540;2022-12-29T01:42:49;11.27;;;7.80;;
76608;SDS011;65928;53.936;27.540;2022-12-29T01:45:15;11.10;;;7.55;;
76608;SDS011;65928;53.936;27.540;2022-12-29T01:48:15;11.23;;;6.72;;
76608;SDS011;65928;53.936;27.540;2022-12-29T01:50:36;12.60;;;7.20;;
76608;SDS011;65928;53.936;27.540;2022-12-29T01:55:40;10.98;;;7.78;;
76608;SDS011;65928;53.936;27.540;2022-12-29T02:04:40;12.95;;;7.97;;
76608;SDS011;65928;53.936;27.540;2022-12-29T02:07:15;13.70;;;9.43;;
76608;SDS011;65928;53.936;27.540;2022-12-29T02:09:46;12.73;;;8.73;;
76608;SDS011;65928;53.936;27.540;2022-12-29T02:15:05;10.10;;;7.95;;
76608;SDS011;65928;53.936;27.540;2022-12-29T02:35:20;12.35;;;8.40;;
76608;SDS011;65928;53.936;27.540;2022-12-29T02:40:42;12.25;;;7.63;;
76608;SDS011;65928;53.936;27.540;2022-12-29T02:46:44;13.55;;;7.95;;
76608;SDS011;65928;53.936;27.540;2022-12-29T02:49:41;12.73;;;8.30;;
76608;SDS011;65928;53.936;27.540;2022-12-29T02:52:25;13.45;;;9.35;;
76608;SDS011;65928;53.936;27.540;2022-12-29T02:54:58;12.15;;;8.05;;
76608;SDS011;65928;53.936;27.540;2022-12-29T02:59:54;13.57;;;8.88;;
76608;SDS011;65928;53.936;27.540;2022-12-29T03:07:50;12.57;;;8.27;;
76608;SDS011;65928;53.936;27.540;2022-12-29T03:13:28;11.52;;;7.93;;
76608;SDS011;65928;53.936;27.540;2022-12-29T03:16:47;13.27;;;8.65;;
76608;SDS011;65928;53.936;27.540;2022-12-29T03:19:38;11.98;;;9.00;;
76608;SDS011;65928;53.936;27.540;2022-12-29T03:22:15;11.98;;;8.63;;
76608;SDS011;65928;53.936;27.540;2022-12-29T03:24:54;13.68;;;9.20;;
76608;SDS011;65928;53.936;27.540;2022-12-29T03:31:03;11.98;;;7.13;;
76608;SDS011;65928;53.936;27.540;2022-12-29T03:33:31;13.63;;;9.95;;
76608;SDS011;65928;53.936;27.540;2022-12-29T03:35:58;13.88;;;10.40;;
76608;SDS011;65928;53.936;27.540;2022-12-29T03:38:30;19.35;;;10.07;;
76608;SDS011;65928;53.936;27.540;2022-12-29T03:41:01;13.00;;;8.63;;
76608;SDS011;65928;53.936;27.540;2022-12-29T03:43:32;13.77;;;9.10;;
76608;SDS011;65928;53.936;27.540;2022-12-29T03:45:58;14.27;;;10.55;;
76608;SDS011;65928;53.936;27.540;2022-12-29T03:48:24;12.57;;;8.25;;
76608;SDS011;65928;53.936;27.540;2022-12-29T03:50:49;15.27;;;11.60;;
76608;SDS011;65928;53.936;27.540;2022-12-29T03:53:15;16.08;;;10.75;;
76608;SDS011;65928;53.936;27.540;2022-12-29T03:55:40;15.70;;;10.07;;
76608;SDS011;65928;53.936;27.540;2022-12-29T03:58:06;16.92;;;9.73;;
76608;SDS011;65928;53.936;27.540;2022-12-29T04:00:31;16.95;;;10.73;;
76608;SDS011;65928;53.936;27.540;2022-12-29T04:02:57;14.02;;;9.73;;
76608;SDS011;65928;53.936;27.540;2022-12-29T04:05:22;17.75;;;11.38;;
76608;SDS011;65928;53.936;27.540;2022-12-29T04:07:47;18.60;;;13.60;;
76608;SDS011;65928;53.936;27.540;2022-12-29T04:10:13;13.95;;;9.32;;
76608;SDS011;65928;53.936;27.540;2022-12-29T04:12:39;19.13;;;12.52;;
76608;SDS011;65928;53.936;27.540;2022-12-29T04:15:06;18.92;;;11.77;;
76608;SDS011;65928;53.936;27.540;2022-12-29T04:17:33;19.40;;;13.07;;
76608;SDS011;65928;53.936;27.540;2022-12-29T04:19:58;18.00;;;11.73;;
76608;SDS011;65928;53.936;27.540;2022-12-29T04:22:44;23.42;;;14.15;;
76608;SDS011;65928;53.936;27.540;2022-12-29T04:25:09;20.85;;;12.40;;
76608;SDS011;65928;53.936;27.540;2022-12-29T04:27:35;21.83;;;13.23;;
76608;SDS011;65928;53.936;27.540;2022-12-29T04:30:01;17.58;;;11.45;;
76608;SDS011;65928;53.936;27.540;2022-12-29T04:32:26;20.00;;;12.40;;
76608;SDS011;65928;53.936;27.540;2022-12-29T04:34:51;17.92;;;12.38;;
76608;SDS011;65928;53.936;27.540;2022-12-29T04:37:17;17.85;;;12.23;;
76608;SDS011;65928;53.936;27.540;2022-12-29T04:39:44;18.95;;;13.02;;
76608;SDS011;65928;53.936;27.540;2022-12-29T04:42:10;17.08;;;11.70;;
76608;SDS011;65928;53.936;27.540;2022-12-29T04:44:35;18.50;;;11.93;;
76608;SDS011;65928;53.936;27.540;2022-12-29T04:47:01;18.17;;;12.05;;
76608;SDS011;65928;53.936;27.540;2022-12-29T04:49:26;16.73;;;12.93;;
76608;SDS011;65928;53.936;27.540;2022-12-29T04:51:51;19.90;;;12.07;;
76608;SDS011;65928;53.936;27.540;2022-12-29T04:54:17;16.70;;;11.93;;
76608;SDS011;65928;53.936;27.540;2022-12-29T04:56:42;18.17;;;12.55;;
76608;SDS011;65928;53.936;27.540;2022-12-29T04:59:08;17.75;;;10.60;;
76608;SDS011;65928;53.936;27.540;2022-12-29T05:01:33;15.80;;;12.05;;
76608;SDS011;65928;53.936;27.540;2022-12-29T05:03:59;16.15;;;11.98;;
76608;SDS011;65928;53.936;27.540;2022-12-29T05:06:24;15.52;;;10.40;;
76608;SDS011;65928;53.936;27.540;2022-12-29T05:08:50;18.15;;;11.55;;
76608;SDS011;65928;53.936;27.540;2022-12-29T05:11:15;16.10;;;11.98;;
76608;SDS011;65928;53.936;27.540;2022-12-29T05:13:40;24.25;;;11.75;;
76608;SDS011;65928;53.936;27.540;2022-12-29T05:16:06;16.30;;;10.90;;
76608;SDS011;65928;53.936;27.540;2022-12-29T05:18:32;16.48;;;11.43;;
76608;SDS011;65928;53.936;27.540;2022-12-29T05:20:57;20.00;;;12.05;;
76608;SDS011;65928;53.936;27.540;2022-12-29T05:23:22;15.20;;;11.07;;
76608;SDS011;65928;53.936;27.540;2022-12-29T05:25:48;17.30;;;11.75;;
76608;SDS011;65928;53.936;27.540;2022-12-29T05:28:13;17.40;;;12.18;;
76608;SDS011;65928;53.936;27.540;2022-12-29T05:30:39;16.10;;;11.18;;
76608;SDS011;65928;53.936;27.540;2022-12-29T05:33:05;16.60;;;11.93;;
76608;SDS011;65928;53.936;27.540;2022-12-29T05:35:31;19.35;;;12.35;;
76608;SDS011;65928;53.936;27.540;2022-12-29T05:37:57;17.10;;;11.35;;
76608;SDS011;65928;53.936;27.540;2022-12-29T05:40:23;14.98;;;10.77;;
76608;SDS011;65928;53.936;27.540;2022-12-29T05:42:48;16.02;;;11.00;;
76608;SDS011;65928;53.936;27.540;2022-12-29T05:45:13;14.85;;;10.25;;
76608;SDS011;65928;53.936;27.540;2022-12-29T05:47:39;16.58;;;11.63;;
76608;SDS011;65928;53.936;27.540;2022-12-29T05:50:04;15.43;;;10.27;;
76608;SDS011;65928;53.936;27.540;2022-12-29T05:52:30;17.83;;;11.95;;
76608;SDS011;65928;53.936;27.540;2022-12-29T05:54:56;18.73;;;11.60;;
76608;SDS011;65928;53.936;27.540;2022-12-29T05:57:21;17.13;;;12.38;;
76608;SDS011;65928;53.936;27.540;2022-12-29T05:59:46;17.63;;;11.25;;
76608;SDS011;65928;53.936;27.540;2022-12-29T06:02:12;17.60;;;11.85;;
76608;SDS011;65928;53.936;27.540;2022-12-29T06:04:37;18.77;;;11.70;;
76608;SDS011;65928;53.936;27.540;2022-12-29T06:07:03;18.88;;;12.27;;
76608;SDS011;65928;53.936;27.540;2022-12-29T06:09:28;18.35;;;11.10;;
76608;SDS011;65928;53.936;27.540;2022-12-29T06:11:54;19.48;;;11.55;;
76608;SDS011;65928;53.936;27.540;2022-12-29T06:14:19;17.33;;;11.38;;
76608;SDS011;65928;53.936;27.540;2022-12-29T06:16:45;17.92;;;11.52;;
76608;SDS011;65928;53.936;27.540;2022-12-29T06:19:10;19.42;;;11.85;;
76608;SDS011;65928;53.936;27.540;2022-12-29T06:21:36;17.95;;;12.27;;
76608;SDS011;65928;53.936;27.540;2022-12-29T06:24:02;16.35;;;11.18;;
76608;SDS011;65928;53.936;27.540;2022-12-29T06:26:29;17.92;;;12.40;;
76608;SDS011;65928;53.936;27.540;2022-12-29T06:28:54;14.82;;;10.60;;
76608;SDS011;65928;53.936;27.540;2022-12-29T06:31:20;17.20;;;11.35;;
76608;SDS011;65928;53.936;27.540;2022-12-29T06:33:45;15.93;;;11.77;;
76608;SDS011;65928;53.936;27.540;2022-12-29T06:36:11;18.60;;;12.07;;
76608;SDS011;65928;53.936;27.540;2022-12-29T06:38:36;15.52;;;10.60;;
76608;SDS011;65928;53.936;27.540;2022-12-29T06:41:02;18.65;;;11.13;;
76608;SDS011;65928;53.936;27.540;2022-12-29T06:43:27;18.40;;;13.27;;
76608;SDS011;65928;53.936;27.540;2022-12-29T06:45:53;16.30;;;11.20;;
76608;SDS011;65928;53.936;27.540;2022-12-29T06:48:18;17.35;;;12.23;;
76608;SDS011;65928;53.936;27.540;2022-12-29T06:50:44;20.65;;;12.73;;
76608;SDS011;65928;53.936;27.540;2022-12-29T06:53:09;15.20;;;11.30;;
76608;SDS011;65928;53.936;27.540;2022-12-29T06:55:35;20.70;;;13.15;;
76608;SDS011;65928;53.936;27.540;2022-12-29T06:58:00;19.10;;;13.45;;
76608;SDS011;65928;53.936;27.540;2022-12-29T07:00:26;16.98;;;11.63;;
76608;SDS011;65928;53.936;27.540;2022-12-29T07:02:52;16.40;;;11.05;;
76608;SDS011;65928;53.936;27.540;2022-12-29T07:05:19;20.65;;;12.63;;
76608;SDS011;65928;53.936;27.540;2022-12-29T07:07:45;19.45;;;12.20;;
76608;SDS011;65928;53.936;27.540;2022-12-29T07:10:10;17.85;;;10.63;;
76608;SDS011;65928;53.936;27.540;2022-12-29T07:12:36;17.73;;;12.80;;
76608;SDS011;65928;53.936;27.540;2022-12-29T07:15:01;18.77;;;11.82;;
76608;SDS011;65928;53.936;27.540;2022-12-29T07:17:27;19.33;;;12.35;;
76608;SDS011;65928;53.936;27.540;2022-12-29T07:19:52;17.83;;;11.85;;
76608;SDS011;65928;53.936;27.540;2022-12-29T07:22:18;17.15;;;12.38;;
76608;SDS011;65928;53.936;27.540;2022-12-29T07:24:43;15.95;;;11.63;;
76608;SDS011;65928;53.936;27.540;2022-12-29T07:27:09;16.13;;;10.68;;
76608;SDS011;65928;53.936;27.540;2022-12-29T07:29:36;19.02;;;11.60;;
76608;SDS011;65928;53.936;27.540;2022-12-29T07:32:03;17.67;;;11.90;;
76608;SDS011;65928;53.936;27.540;2022-12-29T07:34:29;16.05;;;10.52;;
76608;SDS011;65928;53.936;27.540;2022-12-29T07:36:55;18.08;;;12.57;;
76608;SDS011;65928;53.936;27.540;2022-12-29T07:39:20;18.77;;;12.30;;
76608;SDS011;65928;53.936;27.540;2022-12-29T07:41:46;21.35;;;13.32;;
76608;SDS011;65928;53.936;27.540;2022-12-29T07:44:11;22.73;;;15.18;;
76608;SDS011;65928;53.936;27.540;2022-12-29T07:46:37;19.83;;;12.68;;
76608;SDS011;65928;53.936;27.540;2022-12-29T07:49:02;23.42;;;14.48;;
76608;SDS011;65928;53.936;27.540;2022-12-29T07:51:27;18.55;;;12.55;;
76608;SDS011;65928;53.936;27.540;2022-12-29T07:53:53;20.48;;;12.48;;
76608;SDS011;65928;53.936;27.540;2022-12-29T07:56:18;19.10;;;13.07;;
76608;SDS011;65928;53.936;27.540;2022-12-29T07:58:44;18.17;;;12.18;;
76608;SDS011;65928;53.936;27.540;2022-12-29T08:01:09;23.55;;;13.02;;
76608;SDS011;65928;53.936;27.540;2022-12-29T08:03:35;17.73;;;12.60;;
76608;SDS011;65928;53.936;27.540;2022-12-29T08:06:01;18.00;;;12.45;;
76608;SDS011;65928;53.936;27.540;2022-12-29T08:08:27;19.63;;;11.90;;
76608;SDS011;65928;53.936;27.540;2022-12-29T08:10:52;17.35;;;11.63;;
76608;SDS011;65928;53.936;27.540;2022-12-29T08:13:18;20.95;;;14.05;;
76608;SDS011;65928;53.936;27.540;2022-12-29T08:15:43;24.67;;;13.88;;
76608;SDS011;65928;53.936;27.540;2022-12-29T08:18:08;18.40;;;12.98;;
76608;SDS011;65928;53.936;27.540;2022-12-29T08:20:34;24.15;;;17.40;;
76608;SDS011;65928;53.936;27.540;2022-12-29T08:22:59;19.45;;;13.57;;
76608;SDS011;65928;53.936;27.540;2022-12-29T08:25:25;22.40;;;14.05;;
76608;SDS011;65928;53.936;27.540;2022-12-29T08:27:50;23.10;;;13.98;;
76608;SDS011;65928;53.936;27.540;2022-12-29T08:30:16;22.15;;;13.10;;
76608;SDS011;65928;53.936;27.540;2022-12-29T08:32:41;20.52;;;13.70;;
76608;SDS011;65928;53.936;27.540;2022-12-29T08:35:07;20.83;;;14.65;;
76608;SDS011;65928;53.936;27.540;2022-12-29T08:37:33;23.38;;;14.38;;
76608;SDS011;65928;53.936;27.540;2022-12-29T08:39:59;22.35;;;15.00;;
76608;SDS011;65928;53.936;27.540;2022-12-29T08:42:28;16.65;;;11.93;;
76608;SDS011;65928;53.936;27.540;2022-12-29T08:44:56;21.35;;;13.85;;
76608;SDS011;65928;53.936;27.540;2022-12-29T08:47:25;22.65;;;14.63;;
76608;SDS011;65928;53.936;27.540;2022-12-29T08:49:51;20.98;;;13.65;;
76608;SDS011;65928;53.936;27.540;2022-12-29T08:52:16;21.55;;;15.07;;
76608;SDS011;65928;53.936;27.540;2022-12-29T08:54:42;25.58;;;14.43;;
76608;SDS011;65928;53.936;27.540;2022-12-29T08:57:07;22.38;;;14.27;;
76608;SDS011;65928;53.936;27.540;2022-12-29T08:59:33;18.92;;;13.65;;
76608;SDS011;65928;53.936;27.540;2022-12-29T09:01:58;17.63;;;13.25;;
76608;SDS011;65928;53.936;27.540;2022-12-29T09:04:24;19.50;;;13.48;;
76608;SDS011;65928;53.936;27.540;2022-12-29T09:06:49;20.33;;;14.35;;
76608;SDS011;65928;53.936;27.540;2022-12-29T09:09:15;19.70;;;11.75;;
76608;SDS011;65928;53.936;27.540;2022-12-29T09:11:41;20.85;;;14.50;;
76608;SDS011;65928;53.936;27.540;2022-12-29T09:14:07;16.17;;;12.18;;
76608;SDS011;65928;53.936;27.540;2022-12-29T09:16:32;17.55;;;12.02;;
76608;SDS011;65928;53.936;27.540;2022-12-29T09:18:58;17.77;;;13.25;;
76608;SDS011;65928;53.936;27.540;2022-12-29T09:21:24;16.13;;;11.27;;
76608;SDS011;65928;53.936;27.540;2022-12-29T09:23:49;16.33;;;12.73;;
76608;SDS011;65928;53.936;27.540;2022-12-29T09:26:15;16.05;;;11.55;;
76608;SDS011;65928;53.936;27.540;2022-12-29T09:28:41;19.17;;;12.45;;
76608;SDS011;65928;53.936;27.540;2022-12-29T09:31:07;16.40;;;11.85;;
76608;SDS011;65928;53.936;27.540;2022-12-29T09:33:32;18.02;;;12.73;;
76608;SDS011;65928;53.936;27.540;2022-12-29T09:36:01;17.30;;;11.20;;
76608;SDS011;65928;53.936;27.540;2022-12-29T09:38:28;17.42;;;11.07;;
76608;SDS011;65928;53.936;27.540;2022-12-29T09:40:55;18.00;;;12.63;;
76608;SDS011;65928;53.936;27.540;2022-12-29T09:46:34;15.05;;;11.10;;
76608;SDS011;65928;53.936;27.540;2022-12-29T09:51:40;14.88;;;10.63;;
76608;SDS011;65928;53.936;27.540;2022-12-29T09:54:23;12.77;;;9.48;;
76608;SDS011;65928;53.936;27.540;2022-12-29T09:57:10;16.63;;;10.93;;
76608;SDS011;65928;53.936;27.540;2022-12-29T09:59:45;17.35;;;13.82;;
76608;SDS011;65928;53.936;27.540;2022-12-29T10:02:16;17.52;;;11.43;;
76608;SDS011;65928;53.936;27.540;2022-12-29T10:04:45;16.08;;;11.48;;
76608;SDS011;65928;53.936;27.540;2022-12-29T10:07:57;20.98;;;12.65;;
76608;SDS011;65928;53.936;27.540;2022-12-29T10:16:18;14.63;;;11.10;;
76608;SDS011;65928;53.936;27.540;2022-12-29T10:19:06;15.65;;;11.35;;
76608;SDS011;65928;53.936;27.540;2022-12-29T10:24:26;13.63;;;10.48;;
76608;SDS011;65928;53.936;27.540;2022-12-29T10:26:57;15.93;;;10.93;;
76608;SDS011;65928;53.936;27.540;2022-12-29T10:29:26;12.68;;;9.63;;
76608;SDS011;65928;53.936;27.540;2022-12-29T10:32:06;15.27;;;10.82;;
76608;SDS011;65928;53.936;27.540;2022-12-29T10:34:43;15.47;;;10.37;;
76608;SDS011;65928;53.936;27.540;2022-12-29T10:37:18;12.65;;;9.45;;
76608;SDS011;65928;53.936;27.540;2022-12-29T10:39:54;14.40;;;9.57;;
76608;SDS011;65928;53.936;27.540;2022-12-29T10:45:02;14.57;;;10.15;;
76608;SDS011;65928;53.936;27.540;2022-12-29T10:47:31;14.75;;;10.77;;
76608;SDS011;65928;53.936;27.540;2022-12-29T10:50:02;14.57;;;10.70;;
76608;SDS011;65928;53.936;27.540;2022-12-29T10:52:28;14.40;;;10.50;;
76608;SDS011;65928;53.936;27.540;2022-12-29T10:57:36;13.98;;;9.85;;
76608;SDS011;65928;53.936;27.540;2022-12-29T11:05:55;14.18;;;9.45;;
76608;SDS011;65928;53.936;27.540;2022-12-29T11:08:26;13.35;;;10.25;;
76608;SDS011;65928;53.936;27.540;2022-12-29T11:10:59;13.40;;;10.27;;
76608;SDS011;65928;53.936;27.540;2022-12-29T11:14:10;13.98;;;9.15;;
76608;SDS011;65928;53.936;27.540;2022-12-29T11:16:26;13.02;;;10.20;;
76608;SDS011;65928;53.936;27.540;2022-12-29T11:18:55;13.63;;;9.77;;
76608;SDS011;65928;53.936;27.540;2022-12-29T11:21:26;14.50;;;10.23;;
76608;SDS011;65928;53.936;27.540;2022-12-29T11:26:28;13.07;;;9.45;;
76608;SDS011;65928;53.936;27.540;2022-12-29T11:31:42;13.13;;;9.32;;
76608;SDS011;65928;53.936;27.540;2022-12-29T11:34:08;12.98;;;10.40;;
76608;SDS011;65928;53.936;27.540;2022-12-29T11:36:48;11.82;;;8.65;;
76608;SDS011;65928;53.936;27.540;2022-12-29T11:39:24;14.15;;;10.40;;
76608;SDS011;65928;53.936;27.540;2022-12-29T11:41:55;14.18;;;9.65;;
76608;SDS011;65928;53.936;27.540;2022-12-29T11:44:22;13.80;;;9.75;;
76608;SDS011;65928;53.936;27.540;2022-12-29T11:46:50;11.18;;;8.90;;
76608;SDS011;65928;53.936;27.540;2022-12-29T11:49:21;11.93;;;9.55;;
76608;SDS011;65928;53.936;27.540;2022-12-29T11:51:49;14.80;;;9.80;;
76608;SDS011;65928;53.936;27.540;2022-12-29T11:54:33;13.25;;;9.45;;
76608;SDS011;65928;53.936;27.540;2022-12-29T11:57:12;12.57;;;9.77;;
76608;SDS011;65928;53.936;27.540;2022-12-29T11:59:41;13.18;;;9.27;;
76608;SDS011;65928;53.936;27.540;2022-12-29T12:02:40;13.02;;;10.30;;
76608;SDS011;65928;53.936;27.540;2022-12-29T12:05:27;13.20;;;9.40;;
76608;SDS011;65928;53.936;27.540;2022-12-29T12:07:59;14.43;;;9.30;;
76608;SDS011;65928;53.936;27.540;2022-12-29T12:10:28;13.65;;;10.90;;
76608;SDS011;65928;53.936;27.540;2022-12-29T12:13:03;12.03;;;9.20;;
76608;SDS011;65928;53.936;27.540;2022-12-29T12:15:37;13.10;;;10.25;;
76608;SDS011;65928;53.936;27.540;2022-12-29T12:18:11;12.02;;;9.32;;
76608;SDS011;65928;53.936;27.540;2022-12-29T12:20:52;15.05;;;9.68;;
76608;SDS011;65928;53.936;27.540;2022-12-29T12:29:19;15.82;;;11.30;;
76608;SDS011;65928;53.936;27.540;2022-12-29T12:31:51;14.70;;;10.75;;
76608;SDS011;65928;53.936;27.540;2022-12-29T13:04:28;15.00;;;10.82;;
76608;SDS011;65928;53.936;27.540;2022-12-29T13:16:34;15.25;;;9.85;;
76608;SDS011;65928;53.936;27.540;2022-12-29T13:19:00;13.20;;;9.80;;
76608;SDS011;65928;53.936;27.540;2022-12-29T13:24:17;14.82;;;10.40;;
76608;SDS011;65928;53.936;27.540;2022-12-29T13:26:59;17.63;;;12.43;;
76608;SDS011;65928;53.936;27.540;2022-12-29T13:29:47;15.23;;;10.68;;
76608;SDS011;65928;53.936;27.540;2022-12-29T13:32:28;16.98;;;12.45;;
76608;SDS011;65928;53.936;27.540;2022-12-29T13:37:46;16.10;;;11.73;;
76608;SDS011;65928;53.936;27.540;2022-12-29T13:40:17;14.50;;;10.00;;
76608;SDS011;65928;53.936;27.540;2022-12-29T13:42:46;13.88;;;9.38;;
76608;SDS011;65928;53.936;27.540;2022-12-29T13:45:16;14.05;;;10.73;;
76608;SDS011;65928;53.936;27.540;2022-12-29T13:50:29;14.75;;;10.73;;
76608;SDS011;65928;53.936;27.540;2022-12-29T13:58:12;18.67;;;11.10;;
76608;SDS011;65928;53.936;27.540;2022-12-29T14:01:03;15.32;;;10.75;;
76608;SDS011;65928;53.936;27.540;2022-12-29T14:03:57;16.33;;;11.13;;
76608;SDS011;65928;53.936;27.540;2022-12-29T14:06:25;16.73;;;12.00;;
76608;SDS011;65928;53.936;27.540;2022-12-29T14:09:02;14.85;;;9.52;;
76608;SDS011;65928;53.936;27.540;2022-12-29T14:11:36;15.73;;;10.88;;
76608;SDS011;65928;53.936;27.540;2022-12-29T14:14:12;14.38;;;9.93;;
76608;SDS011;65928;53.936;27.540;2022-12-29T14:16:44;14.95;;;10.10;;
76608;SDS011;65928;53.936;27.540;2022-12-29T14:19:17;12.57;;;9.85;;
76608;SDS011;65928;53.936;27.540;2022-12-29T14:22:07;15.95;;;11.00;;
76608;SDS011;65928;53.936;27.540;2022-12-29T14:27:51;14.38;;;10.55;;
76608;SDS011;65928;53.936;27.540;2022-12-29T14:29:46;16.00;;;12.38;;
76608;SDS011;65928;53.936;27.540;2022-12-29T14:34:46;13.32;;;10.27;;
76608;SDS011;65928;53.936;27.540;2022-12-29T14:37:31;15.88;;;12.00;;
76608;SDS011;65928;53.936;27.540;2022-12-29T14:42:39;15.15;;;10.73;;
76608;SDS011;65928;53.936;27.540;2022-12-29T14:50:23;17.17;;;11.15;;
76608;SDS011;65928;53.936;27.540;2022-12-29T14:52:58;15.52;;;11.98;;
76608;SDS011;65928;53.936;27.540;2022-12-29T14:58:16;13.95;;;10.38;;
76608;SDS011;65928;53.936;27.540;2022-12-29T15:00:45;15.60;;;11.38;;
76608;SDS011;65928;53.936;27.540;2022-12-29T15:03:25;17.33;;;11.48;;
76608;SDS011;65928;53.936;27.540;2022-12-29T15:06:13;15.55;;;10.88;;
76608;SDS011;65928;53.936;27.540;2022-12-29T15:08:45;13.07;;;10.35;;
76608;SDS011;65928;53.936;27.540;2022-12-29T15:11:17;12.80;;;10.40;;
76608;SDS011;65928;53.936;27.540;2022-12-29T15:13:43;14.85;;;10.70;;
76608;SDS011;65928;53.936;27.540;2022-12-29T15:16:24;13.52;;;10.48;;
76608;SDS011;65928;53.936;27.540;2022-12-29T15:18:49;14.80;;;9.75;;
76608;SDS011;65928;53.936;27.540;2022-12-29T15:21:15;13.23;;;10.75;;
76608;SDS011;65928;53.936;27.540;2022-12-29T15:23:42;14.85;;;11.32;;
76608;SDS011;65928;53.936;27.540;2022-12-29T15:26:10;15.50;;;11.45;;
76608;SDS011;65928;53.936;27.540;2022-12-29T15:28:37;13.80;;;9.75;;
76608;SDS011;65928;53.936;27.540;2022-12-29T15:31:04;14.85;;;10.98;;
76608;SDS011;65928;53.936;27.540;2022-12-29T15:33:37;14.07;;;10.87;;
76608;SDS011;65928;53.936;27.540;2022-12-29T15:36:08;16.27;;;11.38;;
76608;SDS011;65928;53.936;27.540;2022-12-29T15:41:05;16.27;;;11.23;;
76608;SDS011;65928;53.936;27.540;2022-12-29T15:43:49;15.52;;;10.80;;
76608;SDS011;65928;53.936;27.540;2022-12-29T15:46:16;13.75;;;10.98;;
76608;SDS011;65928;53.936;27.540;2022-12-29T15:48:42;14.43;;;10.07;;
76608;SDS011;65928;53.936;27.540;2022-12-29T15:51:22;14.80;;;10.50;;
76608;SDS011;65928;53.936;27.540;2022-12-29T15:53:59;15.88;;;10.35;;
76608;SDS011;65928;53.936;27.540;2022-12-29T15:56:27;13.13;;;10.88;;
76608;SDS011;65928;53.936;27.540;2022-12-29T15:58:54;13.32;;;9.32;;
76608;SDS011;65928;53.936;27.540;2022-12-29T16:08:03;13.45;;;10.35;;
76608;SDS011;65928;53.936;27.540;2022-12-29T16:10:46;14.82;;;11.02;;
76608;SDS011;65928;53.936;27.540;2022-12-29T16:15:46;12.43;;;9.70;;
76608;SDS011;65928;53.936;27.540;2022-12-29T16:18:33;13.82;;;10.60;;
76608;SDS011;65928;53.936;27.540;2022-12-29T16:21:02;15.05;;;10.60;;
76608;SDS011;65928;53.936;27.540;2022-12-29T16:23:30;13.35;;;11.35;;
76608;SDS011;65928;53.936;27.540;2022-12-29T16:25:57;16.52;;;10.00;;
76608;SDS011;65928;53.936;27.540;2022-12-29T16:28:24;12.98;;;10.45;;
76608;SDS011;65928;53.936;27.540;2022-12-29T16:31:04;13.43;;;11.05;;
76608;SDS011;65928;53.936;27.540;2022-12-29T16:33:38;13.05;;;9.75;;
76608;SDS011;65928;53.936;27.540;2022-12-29T16:39:35;12.20;;;9.27;;
76608;SDS011;65928;53.936;27.540;2022-12-29T16:47:47;11.75;;;9.75;;
76608;SDS011;65928;53.936;27.540;2022-12-29T16:50:32;11.98;;;8.75;;
76608;SDS011;65928;53.936;27.540;2022-12-29T16:53:00;14.27;;;9.57;;
76608;SDS011;65928;53.936;27.540;2022-12-29T16:58:50;14.10;;;8.85;;
76608;SDS011;65928;53.936;27.540;2022-12-29T17:01:23;13.50;;;10.38;;
76608;SDS011;65928;53.936;27.540;2022-12-29T17:03:53;12.80;;;9.65;;
76608;SDS011;65928;53.936;27.540;2022-12-29T17:06:22;11.65;;;8.25;;
76608;SDS011;65928;53.936;27.540;2022-12-29T17:08:48;11.15;;;8.30;;
76608;SDS011;65928;53.936;27.540;2022-12-29T17:14:39;13.25;;;8.63;;
76608;SDS011;65928;53.936;27.540;2022-12-29T17:19:47;14.20;;;9.80;;
76608;SDS011;65928;53.936;27.540;2022-12-29T17:22:17;13.13;;;9.77;;
76608;SDS011;65928;53.936;27.540;2022-12-29T17:24:45;12.05;;;9.55;;
76608;SDS011;65928;53.936;27.540;2022-12-29T17:27:16;14.05;;;9.95;;
76608;SDS011;65928;53.936;27.540;2022-12-29T17:29:49;14.57;;;10.00;;
76608;SDS011;65928;53.936;27.540;2022-12-29T17:32:17;12.35;;;8.98;;
76608;SDS011;65928;53.936;27.540;2022-12-29T17:34:43;12.68;;;8.68;;
76608;SDS011;65928;53.936;27.540;2022-12-29T17:39:49;13.05;;;9.00;;
76608;SDS011;65928;53.936;27.540;2022-12-29T17:42:16;11.70;;;8.82;;
76608;SDS011;65928;53.936;27.540;2022-12-29T17:44:43;10.35;;;8.35;;
76608;SDS011;65928;53.936;27.540;2022-12-29T17:47:11;10.68;;;8.07;;
76608;SDS011;65928;53.936;27.540;2022-12-29T17:49:39;14.43;;;9.65;;
76608;SDS011;65928;53.936;27.540;2022-12-29T17:52:05;11.30;;;8.55;;
76608;SDS011;65928;53.936;27.540;2022-12-29T17:54:31;8.85;;;7.35;;